createdAt,value
2022-09-06T00:04:54.576Z,10.80
2022-09-06T00:09:55.215Z,10.95
2022-09-06T00:14:56.121Z,10.50
2022-09-06T00:19:58.085Z,10.98
2022-09-06T00:24:58.652Z,10.18
2022-09-06T00:29:59.274Z,10.88
2022-09-06T00:35:01.209Z,10.77
2022-09-06T00:40:01.912Z,10.95
2022-09-06T00:45:03.052Z,10.55
2022-09-06T00:50:06.487Z,10.40
2022-09-06T00:55:08.098Z,11.10
2022-09-06T01:00:10.539Z,10.27
2022-09-06T01:05:13.971Z,11.00
2022-09-06T01:10:30.781Z,10.20
2022-09-06T01:15:40.965Z,10.68
2022-09-06T01:20:52.862Z,10.25
2022-09-06T01:26:04.994Z,10.02
2022-09-06T01:31:18.471Z,11.00
2022-09-06T01:36:24.996Z,11.15
2022-09-06T01:41:25.755Z,10.40
2022-09-06T01:46:34.458Z,10.73
2022-09-06T01:51:41.500Z,10.48
2022-09-06T01:56:52.789Z,10.88
2022-09-06T02:02:04.636Z,10.98
2022-09-06T02:07:11.538Z,10.73
2022-09-06T02:12:15.297Z,10.25
2022-09-06T02:17:22.122Z,10.45
2022-09-06T02:22:26.036Z,11.00
2022-09-06T02:27:27.082Z,10.68
2022-09-06T02:32:31.482Z,10.55
2022-09-06T02:37:32.086Z,10.25
2022-09-06T02:42:32.763Z,12.07
2022-09-06T02:47:34.699Z,10.98
2022-09-06T02:52:35.402Z,10.43
2022-09-06T02:57:36.033Z,11.00
2022-09-06T03:02:38.088Z,11.02
2022-09-06T03:07:38.742Z,10.13
2022-09-06T03:12:39.387Z,10.50
2022-09-06T03:17:42.179Z,10.38
2022-09-06T03:22:43.093Z,10.88
2022-09-06T03:27:44.838Z,10.02
2022-09-06T03:32:46.766Z,9.68
2022-09-06T03:37:47.400Z,10.50
2022-09-06T03:42:48.040Z,11.05
2022-09-06T03:47:50.017Z,10.00
2022-09-06T03:52:50.622Z,9.93
2022-09-06T03:57:51.222Z,10.20
2022-09-06T04:02:53.140Z,10.20
2022-09-06T04:07:53.798Z,9.68
2022-09-06T04:12:54.452Z,9.10
2022-09-06T04:17:56.401Z,10.07
2022-09-06T04:22:57.042Z,9.40
2022-09-06T04:27:57.703Z,9.70
2022-09-06T04:32:59.655Z,10.40
2022-09-06T04:38:01.691Z,11.00
2022-09-06T04:43:02.307Z,9.98
2022-09-06T04:48:04.407Z,9.95
2022-09-06T04:53:05.070Z,10.02
2022-09-06T04:58:06.466Z,9.13
2022-09-06T05:03:09.866Z,10.32
2022-09-06T05:08:10.557Z,10.05
2022-09-06T05:13:11.198Z,9.52
2022-09-06T05:18:16.168Z,9.77
2022-09-06T05:23:16.956Z,9.73
2022-09-06T05:28:18.146Z,9.57
2022-09-06T05:33:23.710Z,9.30
2022-09-06T05:38:28.126Z,9.45
2022-09-06T05:43:30.247Z,8.57
2022-09-06T05:48:36.590Z,8.57
2022-09-06T05:53:38.898Z,7.90
2022-09-06T05:58:39.828Z,7.40
2022-09-06T06:03:41.820Z,7.57
2022-09-06T06:08:42.508Z,7.68
2022-09-06T06:13:43.739Z,7.32
2022-09-06T06:18:49.987Z,7.18
2022-09-06T06:23:54.667Z,6.22
2022-09-06T06:28:55.638Z,6.28
2022-09-06T06:33:58.285Z,5.60
2022-09-06T06:38:59.670Z,6.43
2022-09-06T06:44:03.007Z,6.13
2022-09-06T06:49:05.318Z,5.45
2022-09-06T06:54:06.612Z,4.88
2022-09-06T06:59:08.746Z,5.00
2022-09-06T07:04:12.243Z,5.05
2022-09-06T07:09:12.841Z,5.28
2022-09-06T07:14:13.477Z,4.82
2022-09-06T07:24:36.194Z,4.50
2022-09-06T07:29:36.857Z,5.22
2022-09-06T07:34:39.707Z,4.88
2022-09-06T07:39:41.350Z,5.00
2022-09-06T07:44:42.076Z,7.93
2022-09-06T07:55:05.300Z,5.10
2022-09-06T08:00:06.549Z,4.72
2022-09-06T08:10:34.295Z,4.80
2022-09-06T08:15:35.336Z,4.90
2022-09-06T08:20:37.337Z,6.57
2022-09-06T08:25:38.075Z,5.28
2022-09-06T08:30:38.732Z,4.63
2022-09-06T08:35:40.690Z,4.30
2022-09-06T08:40:41.355Z,4.68
2022-09-06T08:45:42.769Z,4.07
2022-09-06T08:50:57.206Z,4.15
2022-09-06T08:56:06.115Z,4.28
2022-09-06T09:01:11.402Z,4.18
2022-09-06T09:06:13.469Z,4.55
2022-09-06T09:11:18.154Z,3.85
2022-09-06T09:16:20.054Z,4.70
2022-09-06T09:21:29.615Z,4.35
2022-09-06T09:26:37.400Z,4.07
2022-09-06T09:31:40.239Z,4.07
2022-09-06T09:42:04.052Z,3.88
2022-09-06T09:47:22.849Z,4.68
2022-09-06T09:52:29.209Z,4.72
2022-09-06T09:57:32.197Z,4.22
2022-09-06T10:02:39.015Z,4.97
2022-09-06T10:07:46.948Z,4.50
2022-09-06T10:12:47.572Z,4.60
2022-09-06T10:17:51.224Z,4.50
2022-09-06T10:23:02.677Z,3.80
2022-09-06T10:28:21.533Z,3.50
2022-09-06T10:33:32.262Z,3.70
2022-09-06T10:38:49.305Z,3.80
2022-09-06T10:43:58.865Z,3.70
2022-09-06T10:48:59.910Z,4.70
2022-09-06T10:54:09.211Z,3.80
2022-09-06T11:10:07.838Z,3.95
2022-09-06T11:15:11.539Z,4.15
2022-09-06T11:20:18.078Z,3.85
2022-09-06T11:26:02.227Z,3.60
2022-09-06T11:31:04.852Z,4.03
2022-09-06T11:36:21.133Z,4.20
2022-09-06T11:41:27.629Z,4.13
2022-09-06T11:47:02.594Z,4.15
2022-09-06T11:52:04.175Z,3.75
2022-09-06T11:57:16.069Z,4.43
2022-09-06T12:02:36.387Z,3.92
2022-09-06T12:07:38.320Z,3.75
2022-09-06T12:12:46.738Z,3.92
2022-09-06T12:17:47.921Z,3.95
2022-09-06T12:22:57.688Z,3.25
2022-09-06T12:28:02.486Z,3.85
2022-09-06T12:33:06.289Z,3.72
2022-09-06T12:38:09.383Z,4.18
2022-09-06T12:43:14.568Z,3.58
2022-09-06T12:48:27.986Z,3.58
2022-09-06T12:53:28.743Z,3.63
2022-09-06T12:58:31.088Z,3.42
2022-09-06T13:03:36.350Z,3.47
2022-09-06T13:08:44.589Z,3.90
2022-09-06T13:13:52.651Z,3.33
2022-09-06T13:18:54.122Z,3.50
2022-09-06T13:23:55.031Z,4.18
2022-09-06T13:28:58.034Z,4.15
2022-09-06T13:34:00.491Z,4.28
2022-09-06T13:39:03.803Z,4.40
2022-09-06T13:44:07.990Z,2.63
2022-09-06T13:49:08.941Z,2.33
2022-09-06T13:54:12.384Z,2.70
2022-09-06T13:59:14.466Z,3.83
2022-09-06T14:04:19.236Z,5.00
2022-09-06T14:09:19.956Z,5.30
2022-09-06T14:14:21.984Z,6.75
2022-09-06T14:19:23.233Z,7.50
2022-09-06T14:24:24.102Z,8.65
2022-09-06T14:29:26.114Z,9.10
2022-09-06T14:34:27.698Z,9.63
2022-09-06T14:39:28.516Z,9.82
2022-09-06T14:44:30.582Z,9.57
2022-09-06T14:49:31.224Z,10.05
2022-09-06T14:54:31.939Z,10.07
2022-09-06T14:59:34.310Z,9.95
2022-09-06T15:04:35.066Z,10.27
2022-09-06T15:09:35.691Z,9.55
2022-09-06T15:14:37.939Z,9.88
2022-09-06T15:19:38.746Z,10.20
2022-09-06T15:24:40.464Z,9.65
2022-09-06T15:29:42.533Z,9.88
2022-09-06T15:34:43.163Z,9.52
2022-09-06T15:39:43.828Z,10.48
2022-09-06T15:44:45.787Z,10.63
2022-09-06T15:49:46.413Z,12.05
2022-09-06T15:55:04.550Z,10.13
2022-09-06T16:00:07.367Z,11.65
2022-09-06T16:05:08.593Z,10.82
2022-09-06T16:10:11.538Z,12.30
2022-09-06T16:15:13.692Z,11.45
2022-09-06T16:20:14.567Z,14.15
2022-09-06T16:25:15.208Z,11.70
2022-09-06T16:30:17.439Z,12.93
2022-09-06T16:35:18.823Z,12.63
2022-09-06T16:40:19.528Z,13.15
2022-09-06T16:45:21.548Z,14.02
2022-09-06T16:50:22.337Z,14.82
2022-09-06T16:55:23.137Z,15.00
2022-09-06T17:00:25.157Z,14.35
2022-09-06T17:05:25.767Z,13.82
2022-09-06T17:10:26.609Z,13.65
2022-09-06T17:15:48.649Z,14.10
2022-09-06T17:20:56.147Z,14.27
2022-09-06T17:25:56.778Z,14.50
2022-09-06T17:31:01.186Z,15.90
2022-09-06T17:36:10.369Z,15.88
2022-09-06T17:41:20.787Z,16.40
2022-09-06T17:46:28.471Z,16.77
2022-09-06T17:51:29.524Z,17.52
2022-09-06T17:56:30.526Z,17.25
2022-09-06T18:01:36.192Z,16.33
2022-09-06T18:06:39.976Z,18.30
2022-09-06T18:11:41.250Z,17.83
2022-09-06T18:16:45.258Z,16.02
2022-09-06T18:21:46.986Z,15.88
2022-09-06T18:26:47.611Z,14.63
2022-09-06T18:31:51.356Z,13.48
2022-09-06T18:36:52.396Z,13.15
2022-09-06T18:42:02.794Z,13.75
2022-09-06T18:47:06.882Z,14.77
2022-09-06T18:52:08.098Z,14.90
2022-09-06T18:57:09.130Z,14.02
2022-09-06T19:02:11.380Z,14.30
2022-09-06T19:07:12.068Z,14.27
2022-09-06T19:12:12.679Z,16.50
2022-09-06T19:17:14.682Z,16.73
2022-09-06T19:22:15.521Z,15.45
2022-09-06T19:27:16.212Z,16.98
2022-09-06T19:32:19.225Z,16.42
2022-09-06T19:37:23.704Z,17.35
2022-09-06T19:42:24.350Z,16.38
2022-09-06T19:47:26.317Z,16.88
2022-09-06T19:52:27.024Z,17.27
2022-09-06T19:57:27.698Z,17.75
2022-09-06T20:02:29.738Z,17.77
2022-09-06T20:07:30.477Z,19.25
2022-09-06T20:12:32.324Z,17.70
2022-09-06T20:17:34.994Z,19.27
2022-09-06T20:22:35.711Z,19.85
2022-09-06T20:27:36.346Z,19.02
2022-09-06T20:32:38.313Z,20.38
2022-09-06T20:37:38.959Z,22.35
2022-09-06T20:42:42.208Z,19.95
2022-09-06T20:47:44.227Z,19.58
2022-09-06T20:52:45.436Z,19.80
2022-09-06T20:57:47.708Z,19.13
2022-09-06T21:02:49.673Z,19.83
2022-09-06T21:07:50.336Z,18.33
2022-09-06T21:12:51.142Z,16.25
2022-09-06T21:17:53.202Z,17.63
2022-09-06T21:22:53.815Z,17.35
2022-09-06T21:27:55.928Z,15.68
2022-09-06T21:32:57.953Z,15.65
2022-09-06T21:37:58.575Z,14.90
2022-09-06T21:42:59.182Z,15.32
2022-09-06T21:48:01.139Z,15.32
2022-09-06T21:53:01.743Z,15.32
2022-09-06T21:58:02.346Z,16.55
2022-09-06T22:03:04.605Z,15.20
2022-09-06T22:08:05.281Z,14.68
2022-09-06T22:13:05.922Z,15.77
2022-09-06T22:18:08.613Z,15.73
2022-09-06T22:23:10.378Z,16.27
2022-09-06T22:28:10.975Z,16.30
2022-09-06T22:33:12.922Z,17.27
2022-09-06T22:38:13.562Z,15.75
2022-09-06T22:43:15.287Z,16.42
2022-09-06T22:48:17.427Z,15.82
2022-09-06T22:53:19.024Z,15.75
2022-09-06T22:58:19.664Z,15.93
2022-09-06T23:03:22.022Z,16.00
2022-09-06T23:08:22.688Z,16.35
2022-09-06T23:13:23.321Z,16.00
2022-09-06T23:18:25.361Z,15.52
2022-09-06T23:23:25.977Z,16.30
2022-09-06T23:28:26.579Z,15.23
2022-09-06T23:33:29.104Z,15.55
2022-09-06T23:38:29.801Z,15.25
2022-09-06T23:43:30.985Z,16.13
2022-09-06T23:48:33.118Z,14.48
2022-09-06T23:53:34.282Z,15.57
2022-09-06T23:58:34.955Z,16.00
